Home > Products > Valid Products > TAF

000
FTUS41 KPBZ 311500 AAA
TAFMGW
TAF AMD
KMGW 311519Z 3115/0112 26005KT P6SM BKN035
     FM312200 VRB05KT P6SM SKC
     FM010900 VRB03KT 5SM BR SKC=



000
FTUS41 KPBZ 311500 AAA
TAFAGC
TAF AMD
KAGC 311518Z 3115/0112 23008KT P6SM SCT015 BKN050
     FM311700 23010KT P6SM SCT035
     FM010800 VRB03KT 5SM BR SKC=



000
FTUS41 KPBZ 311400 AAB
TAFHLG
TAF AMD
KHLG 311457Z 3115/0112 21006KT P6SM BKN025
     FM311700 21008KT P6SM SCT035
     FM010700 VRB03KT 5SM BR SKC=



000
FTUS41 KPBZ 311400 AAA
TAFPIT
TAF AMD
KPIT 311456Z 3115/0118 23003KT P6SM BKN025
     FM311700 22010KT P6SM SCT035
     FM010800 VRB03KT 5SM BR SKC
     FM011400 13005KT P6SM BKN080=



000
FTUS41 KPBZ 311300 AAA
TAFBVI
TAF AMD
KBVI 311356Z 3114/0112 24006KT P6SM BKN007
     FM311500 23010KT P6SM BKN015
     FM311700 23010KT P6SM SCT035
     FM010800 VRB03KT 5SM BR SKC=



000
FTUS41 KPBZ 311300 AAA
TAFDUJ
TAF AMD
KDUJ 311344Z 3114/0112 22008KT 3SM BR OVC004
     FM311500 21010KT P6SM BKN015
     FM311700 21010KT P6SM SCT035
     FM010700 VRB03KT 3SM BR SKC=



000
FTUS41 KPBZ 311200 AAA
TAFHLG
TAF AMD
KHLG 311230Z 3113/0112 21008KT P6SM SCT080
     FM312300 VRB05KT P6SM SKC
     FM010700 VRB03KT 5SM BR SKC=



000
FTUS41 KPBZ 311100
TAFHLG
TAF
KHLG 311138Z 3112/0112 18005KT 4SM BR BKN100
     FM311400 21010KT P6SM SCT080
     FM312300 VRB05KT P6SM SKC
     FM010700 VRB03KT 5SM BR SKC=



000
FTUS41 KPBZ 311100
TAFMGW
TAF
KMGW 311138Z 3112/0112 18005KT P6SM SCT100
     FM311500 27012KT P6SM SCT060
     FM312300 VRB05KT P6SM SKC
     FM010900 VRB03KT 5SM BR SKC=



000
FTUS41 KPBZ 311100
TAFPIT
TAF
KPIT 311138Z 3112/0118 20003KT 6SM BR SCT040 BKN100
     FM311400 21010KT P6SM SCT100
     FM312300 VRB05KT P6SM SKC
     FM010800 VRB03KT 5SM BR SKC
     FM011400 13005KT P6SM BKN080=



000
FTUS41 KPBZ 311100
TAFDUJ
TAF
KDUJ 311138Z 3112/0112 22008KT 1SM BR OVC004
      TEMPO 3112/3113 4SM BR BKN006
     FM311400 21010KT P6SM BKN040
     FM010100 VRB05KT P6SM SKC
     FM010700 VRB03KT 3SM BR SKC=



000
FTUS41 KPBZ 311100
TAFLBE
TAF
KLBE 311138Z 3112/0112 20007KT P6SM BKN060
     FM311400 21010KT P6SM BKN100
     FM312300 VRB05KT P6SM SKC
     FM010700 VRB03KT 5SM BR SKC=



000
FTUS41 KPBZ 311100
TAFZZV
TAF
KZZV 311138Z 3112/0112 20005KT P6SM BKN080
     FM311400 21008KT P6SM SKC
     FM311700 26011KT P6SM SCT060
     FM312300 VRB05KT P6SM SKC
     FM010900 VRB03KT 3SM BR SKC=



000
FTUS41 KPBZ 311100
TAFBVI
TAF
KBVI 311138Z 3112/0112 20004KT 4SM BR OVC003
     FM311400 21010KT P6SM BKN100
     FM312300 VRB05KT P6SM SKC
     FM010800 VRB03KT 5SM BR SKC=



000
FTUS41 KPBZ 311100
TAFAGC
TAF
KAGC 311138Z 3112/0112 19005KT 4SM BR BKN040
     FM311400 21010KT P6SM SCT100
     FM312300 VRB05KT P6SM SKC
     FM010800 VRB03KT 5SM BR SKC=



000
FTUS41 KPBZ 311100 AAA
TAFBVI
TAF AMD
KBVI 311102Z 3111/0106 20004KT 4SM BR OVC003
     FM311400 21010G18KT P6SM BKN080
     FM312300 VRB03KT P6SM SKC=



000
FTUS41 KPBZ 311000 AAB
TAFZZV
TAF AMD
KZZV 311010Z 3110/0106 VRB03KT 6SM BR SKC
     FM311400 VRB03KT P6SM SKC
     FM311700 26012G18KT P6SM SCT060=



000
FTUS41 KPBZ 310900 AAB
TAFPIT
TAF AMD
KPIT 310957Z 3110/0112 VRB03KT 6SM BR FEW040 SCT100
     FM311400 21010G18KT P6SM SCT080
     FM312300 VRB05KT P6SM SKC=



000
FTUS41 KPBZ 310900 AAB
TAFHLG
TAF AMD
KHLG 310956Z 3110/0106 VRB03KT 6SM BR BKN100
     FM311500 27012G18KT P6SM SCT060
     FM312300 VRB05KT P6SM SKC=



000
FTUS41 KPBZ 310900 AAB
TAFMGW
TAF AMD
KMGW 310956Z 3110/0106 VRB03KT P6SM SKC
     FM311500 27012KT P6SM SCT060
     FM312300 VRB05KT P6SM SKC=



000
FTUS41 KPBZ 310900 AAA
TAFAGC
TAF AMD
KAGC 310922Z 3109/0106 VRB03KT 4SM BR BKN040
     FM311400 21010G18KT P6SM SCT080=



000
FTUS41 KPBZ 310800 AAA
TAFDUJ
TAF AMD
KDUJ 310857Z 3109/0106 VRB05KT 6SM BR SCT080
      TEMPO 3109/3112 1SM BR BKN007
     FM311600 28012G18KT P6SM BKN040=



000
FTUS41 KPBZ 310800 AAA
TAFHLG
TAF AMD
KHLG 310856Z 3109/0106 VRB03KT 6SM BR SKC
      TEMPO 3109/3112 1SM BR OVC001
     FM311500 27012G18KT P6SM SCT060
     FM312300 VRB05KT P6SM SKC=



000
FTUS41 KPBZ 310800 AAA
TAFMGW
TAF AMD
KMGW 310856Z 3109/0106 VRB03KT 5SM BR SKC
      TEMPO 3109/3113 1SM BR OVC001
     FM311500 27012KT P6SM SCT060
     FM312300 VRB05KT P6SM SKC=



000
FTUS41 KPBZ 310800 AAA
TAFPIT
TAF AMD
KPIT 310855Z 3109/0112 VRB03KT 5SM BR FEW040 SCT100
      TEMPO 3109/3113 1SM BR SCT005
     FM311400 21010G18KT P6SM SCT080
     FM312300 VRB05KT P6SM SKC=



000
FTUS41 KPBZ 310700 AAA
TAFZZV
TAF AMD
KZZV 310734Z 3108/0106 VRB03KT P6SM BKN080
      TEMPO 3110/3112 1/2SM FG BKN001
     FM311400 VRB03KT P6SM SKC
     FM311700 26012G18KT P6SM SCT060=



000
FTUS41 KPBZ 310500
TAFZZV
TAF
KZZV 310520Z 3106/0106 VRB03KT P6SM SCT080
     FM310700 VRB03KT 5SM BR SKC
      TEMPO 3110/3112 1/2SM FG BKN001
     FM311400 VRB03KT P6SM SKC
     FM311700 26012G18KT P6SM SCT060=



000
FTUS41 KPBZ 310500
TAFMGW
TAF
KMGW 310520Z 3106/0106 VRB05KT 3SM BR SCT080
     FM310800 VRB03KT 1SM BR SKC
      TEMPO 3109/3113 1/2SM FG OVC001
     FM311500 27012KT P6SM SCT060
     FM312300 VRB05KT P6SM SKC=



000
FTUS41 KPBZ 310500
TAFHLG
TAF
KHLG 310520Z 3106/0106 VRB05KT 3SM BR SCT100
     FM310800 VRB03KT 1SM BR SCT001
      TEMPO 3108/3112 1/2SM FG OVC001
     FM311500 27012G18KT P6SM SCT060
     FM312300 VRB05KT P6SM SKC=



000
FTUS41 KPBZ 310500
TAFLBE
TAF
KLBE 310520Z 3106/0106 VRB05KT P6SM BKN080
     FM311300 21010G18KT P6SM SCT080
     FM312300 VRB05KT P6SM SKC=



000
FTUS41 KPBZ 310500
TAFPIT
TAF
KPIT 310520Z 3106/0112 VRB05KT P6SM SCT100
     FM310700 VRB03KT 5SM BR SCT100
      TEMPO 3109/3113 1SM BR SCT005
     FM311400 21010G18KT P6SM SCT080
     FM312300 VRB05KT P6SM SKC=



000
FTUS41 KPBZ 310500
TAFAGC
TAF
KAGC 310520Z 3106/0106 VRB03KT 4SM BR SCT100
      TEMPO 3109/3113 1SM BR SCT005
     FM311400 21010G18KT P6SM SCT080=



000
FTUS41 KPBZ 310500
TAFDUJ
TAF
KDUJ 310520Z 3106/0106 VRB05KT P6SM BKN080
      TEMPO 3108/3112 3SM -RA BR BKN040
     FM311600 28012G18KT P6SM BKN040=



000
FTUS41 KPBZ 310500
TAFBVI
TAF
KBVI 310520Z 3106/0106 VRB05KT P6SM BKN080
     FM311400 21010G18KT P6SM SCT080
     FM312300 VRB05KT P6SM SKC
      AMD NOT SKED=



000
FTUS41 KPBZ 310400 AAB
TAFAGC
TAF AMD
KAGC 310416Z 3104/3124 VRB03KT 4SM BR SCT100
      TEMPO 3109/3113 1SM BR SCT005
     FM311400 21010G18KT P6SM SCT080=



000
FTUS41 KPBZ 310200 AAB
TAFPIT
TAF AMD
KPIT 310251Z 3103/0106 VRB05KT P6SM SCT100
     FM310700 VRB03KT 5SM BR SCT100
      TEMPO 3109/3113 1SM BR SCT005
     FM311400 21010G18KT P6SM SCT080
     FM312300 VRB05KT P6SM SKC=



000
FTUS41 KPBZ 310200 AAB
TAFMGW
TAF AMD
KMGW 310203Z 3102/3124 VRB05KT P6SM SCT080
     FM310500 VRB05KT 3SM BR SCT080
     FM310800 VRB03KT 1SM BR SKC
      TEMPO 3109/3113 1/2SM FG OVC001
     FM311500 27012KT P6SM SCT060
     FM312300 VRB05KT P6SM SKC=



000
FTUS41 KPBZ 310200 AAB
TAFHLG
TAF AMD
KHLG 310202Z 3102/3124 VRB05KT P6SM SCT100
     FM310500 VRB05KT 3SM BR SCT100
     FM310800 VRB03KT 1SM BR SCT001
      TEMPO 3108/3112 1/2SM FG OVC001
     FM311500 27012G18KT P6SM SCT060
     FM312300 VRB05KT P6SM SKC=



000
FTUS41 KPBZ 310200 AAA
TAFAGC
TAF AMD
KAGC 310200Z 3102/3124 VRB05KT P6SM SCT100
     FM310700 VRB03KT 5SM BR SCT100
      TEMPO 3109/3113 1SM BR SCT005
     FM311400 21010G18KT P6SM SCT080=



000
FTUS41 KPBZ 310100 AAA
TAFPIT
TAF AMD
KPIT 310159Z 3102/0106 VRB05KT P6SM SCT100
     FM310700 VRB03KT 5SM BR SCT100
      TEMPO 3109/3113 1SM BR SCT005
     FM311400 21010G18KT P6SM SCT080
     FM312300 VRB05KT P6SM SKC=



000
FTUS41 KPBZ 310100 AAA
TAFHLG
TAF AMD
KHLG 310103Z 3101/3124 VRB05KT P6SM SCT100
     FM310500 VRB05KT 3SM BR SCT100
      TEMPO 3108/3112 1/2SM FG OVC001
     FM312300 VRB05KT P6SM SKC=



000
FTUS41 KPBZ 310100 AAA
TAFMGW
TAF AMD
KMGW 310102Z 3101/3124 VRB05KT P6SM BKN060
      TEMPO 3101/3103 BKN030
     FM310500 VRB05KT P6SM SCT060
      TEMPO 3109/3113 2SM BR
     FM311500 27012KT P6SM SCT060
     FM312300 VRB05KT P6SM SKC=



000
FTUS41 KPBZ 302300
TAFHLG
TAF
KHLG 302320Z 3100/3124 VRB05KT P6SM BKN060
      TEMPO 3100/3102 5SM -RA BR
     FM311000 21010G18KT P6SM SCT060
      TEMPO 3110/3113 3SM BR
     FM312300 VRB05KT P6SM SKC=



000
FTUS41 KPBZ 302300
TAFBVI
TAF
KBVI 302320Z 3100/3124 VRB05KT P6SM BKN080
      TEMPO 3100/3102 6SM -RA BR
     FM311400 21010G18KT P6SM SCT080
     FM312300 VRB05KT P6SM SKC
      AMD NOT SKED 3101/3111=



000
FTUS41 KPBZ 302300
TAFZZV
TAF
KZZV 302320Z 3100/3124 VRB03KT P6SM SCT080
     FM310700 VRB03KT 5SM BR SKC
      TEMPO 3110/3112 1/2SM FG BKN001
     FM311400 VRB03KT P6SM SKC
     FM311700 26012G18KT P6SM SCT060=



000
FTUS41 KPBZ 302300
TAFLBE
TAF
KLBE 302320Z 3100/3124 VRB05KT P6SM BKN080
      TEMPO 3100/3103 6SM -RA BR
     FM311300 21010G18KT P6SM SCT080
     FM312300 VRB05KT P6SM SKC=



000
FTUS41 KPBZ 302300
TAFPIT
TAF
KPIT 302320Z 3100/0106 VRB05KT P6SM BKN080
      TEMPO 3100/3102 6SM -RA BR
     FM311400 21010G18KT P6SM SCT080
     FM312300 VRB05KT P6SM SKC=



000
FTUS41 KPBZ 302300
TAFAGC
TAF
KAGC 302320Z 3100/3124 VRB05KT P6SM BKN080
      TEMPO 3100/3102 6SM -RA BR
     FM311400 21010G18KT P6SM SCT080
     FM312300 VRB05KT P6SM SKC=



000
FTUS41 KPBZ 302300
TAFDUJ
TAF
KDUJ 302320Z 3100/3124 VRB05KT P6SM BKN080
      TEMPO 3108/3112 3SM -RA BR BKN040
     FM311600 28012G18KT P6SM BKN040=



000
FTUS41 KPBZ 302300
TAFMGW
TAF
KMGW 302320Z 3100/3124 VRB05KT P6SM BKN060
      TEMPO 3100/3102 5SM -RA BR
     FM310500 VRB05KT P6SM SCT060
      TEMPO 3109/3113 2SM BR
     FM311500 27012KT P6SM SCT060
     FM312300 VRB05KT P6SM SKC=



000
FTUS41 KPBZ 302300 AAA
TAFMGW
TAF AMD
KMGW 302303Z 3023/3118 18007KT P6SM BKN080
      TEMPO 3023/3101 6SM -RA
     FM310300 21003KT P6SM SCT080=



000
FTUS41 KPBZ 302300 AAC
TAFHLG
TAF AMD
KHLG 302300Z 3023/3118 23008KT P6SM VCSH BKN050
      TEMPO 3023/3024 1SM TSRA BKN030CB
     FM310100 22004KT P6SM SCT050
     FM310900 20004KT P6SM BKN035
     FM311500 24010KT P6SM BKN035=



000
FTUS41 KPBZ 302200 AAC
TAFLBE
TAF AMD
KLBE 302245Z 3023/3118 24010KT P6SM BKN050
      TEMPO 3023/3102 6SM -RA
     FM310300 21004KT P6SM SCT050
     FM310900 20004KT P6SM BKN035
     FM311500 24010KT P6SM BKN035=



000
FTUS41 KPBZ 302100 AAD
TAFDUJ
TAF AMD
KDUJ 302159Z 3022/3118 23010KT P6SM VCSH BKN035
      TEMPO 3022/3024 3SM -TSRA BKN030CB
     FM310100 23003KT P6SM BKN050
     FM311100 20005KT P6SM VCSH BKN035
     FM311600 25008KT P6SM BKN035=



000
FTUS41 KPBZ 302100 AAB
TAFZZV
TAF AMD
KZZV 302153Z 3022/3118 24007KT P6SM BKN035
     FM310100 22003KT P6SM SCT050
     FM311500 25008KT P6SM SCT050=



000
FTUS41 KPBZ 302100 AAB
TAFHLG
TAF AMD
KHLG 302152Z 3022/3118 23008KT P6SM VCSH BKN050
      TEMPO 3022/3023 1SM -TSRA BKN030CB
     FM310100 22004KT P6SM SCT050
     FM310900 20004KT P6SM BKN035
     FM311500 24010KT P6SM BKN035=



000
FTUS41 KPBZ 302100 AAA
TAFHLG
TAF AMD
KHLG 302110Z 3021/3118 23008KT P6SM VCSH BKN050
      TEMPO 3021/3023 6SM -TSRA BKN035CB
     FM310100 22004KT P6SM SCT050
     FM310900 20004KT P6SM BKN035
     FM311500 24010KT P6SM BKN035=



000
FTUS41 KPBZ 302000 AAB
TAFLBE
TAF AMD
KLBE 302051Z 3021/3118 24010KT P6SM VCSH BKN050
      TEMPO 3022/3101 5SM -TSRA BKN030CB
     FM310300 21004KT P6SM SCT050
     FM310900 20004KT P6SM BKN035
     FM311500 24010KT P6SM BKN035=



000
FTUS41 KPBZ 302000 AAB
TAFAGC
TAF AMD
KAGC 302050Z 3021/3118 23010KT P6SM VCSH BKN035
      TEMPO 3022/3024 6SM -TSRA BKN035CB
     FM310100 23004KT P6SM SCT050
     FM310900 21004KT P6SM BKN035
     FM311500 26010KT P6SM BKN035=



000
FTUS41 KPBZ 302000 AAB
TAFPIT
TAF AMD
KPIT 302049Z 3021/3124 24010KT P6SM VCSH BKN035
      TEMPO 3022/3024 6SM -TSRA BKN035CB
     FM310100 23004KT P6SM SCT050
     FM310900 21004KT P6SM BKN035
     FM311500 26010KT P6SM BKN035=



000
FTUS41 KPBZ 302000 AAA
TAFZZV
TAF AMD
KZZV 302048Z 3021/3118 24007KT P6SM VCSH BKN035
      TEMPO 3021/3022 2SM TSRA BKN025CB
     FM310100 22003KT P6SM SCT050
     FM311500 25008KT P6SM SCT050=



000
FTUS41 KPBZ 302000 AAC
TAFDUJ
TAF AMD
KDUJ 302000Z 3020/3118 23010KT P6SM VCSH BKN035
      TEMPO 3020/3022 32012G23KT 1SM TSRA BKN030CB
     FM310100 23003KT P6SM BKN050
     FM311100 20005KT P6SM VCSH BKN035
     FM311600 25008KT P6SM BKN035=



000
FTUS41 KPBZ 301900 AAB
TAFDUJ
TAF AMD
KDUJ 301933Z 3020/3118 23010KT P6SM VCSH BKN035
      TEMPO 3020/3022 5SM -TSRA BKN030CB
     FM310100 23003KT P6SM BKN050
     FM311100 20005KT P6SM VCSH BKN035
     FM311600 25008KT P6SM BKN035=



000
FTUS41 KPBZ 301800 AAA
TAFAGC
TAF AMD
KAGC 301859Z 3019/3118 23010KT P6SM VCSH BKN035
      TEMPO 3019/3022 3SM -TSRA BKN035CB
     FM310100 23004KT P6SM SCT050
     FM310900 21004KT P6SM BKN035
     FM311500 26010KT P6SM BKN035=



000
FTUS41 KPBZ 301800 AAA
TAFPIT
TAF AMD
KPIT 301858Z 3019/3124 24010KT P6SM VCSH BKN035
      TEMPO 3019/3022 6SM -TSRA BKN035CB
     FM310100 23004KT P6SM SCT050
     FM310900 21004KT P6SM BKN035
     FM311500 26010KT P6SM BKN035=



000
FTUS41 KPBZ 301800 AAA
TAFLBE
TAF AMD
KLBE 301850Z 3019/3118 24010KT P6SM BKN050
      TEMPO 3019/3022 5SM -TSRA BKN030CB
     FM302200 25010KT P6SM VCSH BKN035
     FM310300 21004KT P6SM SCT050
     FM310900 20004KT P6SM BKN035
     FM311500 24010KT P6SM BKN035=



000
FTUS41 KPBZ 301800 AAA
TAFDUJ
TAF AMD
KDUJ 301834Z 3019/3118 23010KT P6SM SCT025 BKN035
      TEMPO 3019/3020 6SM -TSRA OVC035CB
     FM302000 25010KT 6SM -SHRA BKN025
     FM310100 23003KT P6SM BKN050
     FM311100 20005KT P6SM VCSH BKN035
     FM311600 25008KT P6SM BKN035=



000
FTUS41 KPBZ 301700
TAFDUJ
TAF
KDUJ 301739Z 3018/3118 23010KT P6SM SCT025 BKN035
     FM302000 25010KT 6SM -SHRA BKN025
     FM310100 23003KT P6SM BKN050
     FM311100 20005KT P6SM VCSH BKN035
     FM311600 25008KT P6SM BKN035=



000
FTUS41 KPBZ 301700
TAFPIT
TAF
KPIT 301739Z 3018/3124 24010KT P6SM VCSH BKN035
     FM310100 23004KT P6SM SCT050
     FM310900 21004KT P6SM BKN035
     FM311500 26010KT P6SM BKN035=



000
FTUS41 KPBZ 301700
TAFBVI
TAF
KBVI 301739Z 3018/3118 24008KT P6SM VCSH BKN035
     FM310100 23004KT P6SM BKN050
     FM310900 21004KT P6SM BKN035
     FM311500 26010KT P6SM BKN035=



000
FTUS41 KPBZ 301700
TAFLBE
TAF
KLBE 301739Z 3018/3118 24010KT P6SM BKN050
     FM302000 25010KT P6SM VCSH BKN035
     FM310300 21004KT P6SM SCT050
     FM310900 20004KT P6SM BKN035
     FM311500 24010KT P6SM BKN035=



000
FTUS41 KPBZ 301700
TAFHLG
TAF
KHLG 301739Z 3018/3118 23008KT P6SM VCTS BKN035CB
     FM301915 23010KT P6SM VCSH BKN035
     FM310100 22004KT P6SM SCT050
     FM310900 20004KT P6SM BKN035
     FM311500 24010KT P6SM BKN035=



000
FTUS41 KPBZ 301700
TAFAGC
TAF
KAGC 301739Z 3018/3118 23010KT P6SM VCSH BKN035
     FM310100 23004KT P6SM SCT050
     FM310900 21004KT P6SM BKN035
     FM311500 26010KT P6SM BKN035=



000
FTUS41 KPBZ 301700
TAFMGW
TAF
KMGW 301739Z 3018/3118 18007KT P6SM BKN040
     FM302000 24010KT P6SM BKN040
     FM310100 21003KT P6SM SCT050=



000
FTUS41 KPBZ 301700
TAFZZV
TAF
KZZV 301739Z 3018/3118 24007KT P6SM VCSH BKN035
     FM310100 22003KT P6SM SCT050
     FM311500 25008KT P6SM SCT050=



000
FTUS41 KPBZ 301600 AAA
TAFMGW
TAF AMD
KMGW 301607Z 3016/3112 18007KT P6SM SCT040
     FM302000 25012KT P6SM BKN040
     FM310300 24005KT P6SM SCT050=



000
FTUS41 KPBZ 301500 AAA
TAFPIT
TAF AMD
KPIT 301500Z 3015/3118 23006KT P6SM BKN060
     FM301700 25012KT P6SM VCSH BKN035
     FM310300 23004KT P6SM SCT050
     FM310900 23006KT P6SM BKN035=



000
FTUS41 KPBZ 301300 AAA
TAFDUJ
TAF AMD
KDUJ 301354Z 3014/3112 23005KT P6SM OVC030
     FM301600 25010KT 6SM -RA BKN025
     FM310000 23005KT P6SM BKN050
     FM310900 23005KT P6SM VCSH BKN035=



000
FTUS41 KPBZ 301100
TAFPIT
TAF
KPIT 301120Z 3012/3118 VRB03KT P6SM BKN060
     FM301700 25012KT P6SM VCSH BKN035
     FM310300 23004KT P6SM SCT050
     FM310900 23006KT P6SM BKN035=



000
FTUS41 KPBZ 301100
TAFAGC
TAF
KAGC 301120Z 3012/3112 21005KT P6SM BKN060
     FM301700 25012KT P6SM VCSH BKN035
     FM310000 23005KT P6SM SCT050
     FM310900 23006KT P6SM BKN035=



000
FTUS41 KPBZ 301100
TAFMGW
TAF
KMGW 301120Z 3012/3112 00000KT P6SM SKC
     FM301500 25012KT P6SM BKN040
     FM310300 24005KT P6SM SCT050=



000
FTUS41 KPBZ 301100
TAFHLG
TAF
KHLG 301120Z 3012/3112 VRB03KT P6SM BKN050
     FM301700 25012KT P6SM VCSH BKN035
     FM310000 23005KT P6SM BKN050=



000
FTUS41 KPBZ 301100
TAFDUJ
TAF
KDUJ 301120Z 3012/3112 VRB05KT P6SM BKN060
     FM301500 25010KT 6SM -RA BKN025
     FM310000 23005KT P6SM BKN050
     FM310900 23005KT P6SM VCSH BKN035=



000
FTUS41 KPBZ 301100
TAFZZV
TAF
KZZV 301120Z 3012/3112 VRB03KT P6SM BKN050
     FM302000 25012KT P6SM VCSH BKN035
     FM310100 23005KT P6SM BKN050=



000
FTUS41 KPBZ 301100
TAFLBE
TAF
KLBE 301120Z 3012/3112 VRB03KT P6SM SKC
     FM301500 VRB03KT P6SM SCT060
     FM302100 25012KT P6SM VCSH BKN035
     FM310000 23005KT P6SM BKN050=



000
FTUS41 KPBZ 301100
TAFBVI
TAF
KBVI 301120Z 3012/3112 VRB03KT P6SM BKN060
     FM301600 25012KT P6SM VCSH BKN035
     FM302300 23005KT P6SM BKN050
     FM310900 23006KT P6SM VCSH BKN035=



000
FTUS41 KPBZ 300800 AAA
TAFPIT
TAF AMD
KPIT 300846Z 3009/3112 VRB03KT P6SM BKN060
     FM301700 25012KT P6SM VCSH BKN035
     FM310000 23005KT P6SM BKN050=



000
FTUS41 KPBZ 300500
TAFLBE
TAF
KLBE 300520Z 3006/3106 00000KT P6SM SKC
     FM301000 VRB03KT P6SM BKN060
     FM302100 25012KT P6SM VCSH BKN035
     FM310000 23005KT P6SM BKN050=



000
FTUS41 KPBZ 300500
TAFDUJ
TAF
KDUJ 300520Z 3006/3106 00000KT P6SM SKC
     FM300800 VRB05KT P6SM BKN060
     FM301500 25010KT 6SM -RA BKN025
     FM310000 23005KT P6SM BKN040=



000
FTUS41 KPBZ 300500
TAFAGC
TAF
KAGC 300520Z 3006/3106 22005KT P6SM SKC
     FM300900 23005KT P6SM BKN060
     FM301700 25012KT P6SM VCSH BKN035
     FM310000 23005KT P6SM BKN050=



000
FTUS41 KPBZ 300500
TAFZZV
TAF
KZZV 300520Z 3006/3106 VRB03KT P6SM BKN060
     FM302000 25012KT P6SM VCSH BKN035
     FM310100 23005KT P6SM BKN050=



000
FTUS41 KPBZ 300500
TAFHLG
TAF
KHLG 300520Z 3006/3106 VRB04KT P6SM SKC
     FM301000 VRB03KT P6SM BKN060
     FM301700 25012KT P6SM VCSH BKN035
     FM310000 23005KT P6SM BKN050=



000
FTUS41 KPBZ 300500
TAFBVI
TAF
KBVI 300520Z 3006/3106 00000KT P6SM SKC
     FM300700 VRB03KT P6SM BKN060
     FM301600 25012KT P6SM VCSH BKN035
     FM302300 23005KT P6SM BKN050
      AMD NOT SKED=



000
FTUS41 KPBZ 300500
TAFMGW
TAF
KMGW 300520Z 3006/3106 00000KT P6SM SKC
     FM301500 25012KT P6SM BKN040=



000
FTUS41 KPBZ 300500
TAFPIT
TAF
KPIT 300520Z 3006/3112 00000KT P6SM SKC
     FM300800 VRB03KT P6SM BKN060
     FM301700 25012KT P6SM VCSH BKN035
     FM310000 23005KT P6SM BKN050=



000
FTUS41 KPBZ 300200 AAB
TAFPIT
TAF AMD
KPIT 300257Z 3003/3106 VRB03KT P6SM FEW060
     FM300500 VRB05KT P6SM BKN060
     FM301600 25012KT P6SM VCSH BKN035=



000
FTUS41 KPBZ 300200 AAA
TAFPIT
TAF AMD
KPIT 300256Z 3003/3106 VRB03KT P6SM SKC
     FM300500 VRB05KT P6SM BKN060
     FM301600 25012KT P6SM VCSH BKN035=



000
FTUS41 KPBZ 292300
TAFZZV
TAF
KZZV 292320Z 3000/3024 VRB03KT P6SM SCT050
     FM300200 VRB03KT P6SM BKN050
     FM301500 27008KT P6SM VCSH BKN035=



000
FTUS41 KPBZ 292300
TAFHLG
TAF
KHLG 292320Z 3000/3024 VRB03KT P6SM SCT060
     FM300500 VRB05KT P6SM BKN060
     FM301600 25012KT P6SM VCSH BKN035=



000
FTUS41 KPBZ 292300
TAFPIT
TAF
KPIT 292320Z 3000/3106 VRB03KT P6SM SCT060
     FM300500 VRB05KT P6SM BKN060
     FM301600 25012KT P6SM VCSH BKN035=



000
FTUS41 KPBZ 292300
TAFMGW
TAF
KMGW 292320Z 3000/3024 VRB03KT P6SM SCT060
     FM301600 25012KT P6SM VCSH BKN035=



000
FTUS41 KPBZ 292300
TAFDUJ
TAF
KDUJ 292320Z 3000/3024 VRB05KT P6SM SCT060
     FM300300 VRB05KT P6SM BKN060
     FM301400 25010KT 6SM -RA BKN025=



000
FTUS41 KPBZ 292300
TAFBVI
TAF
KBVI 292320Z 3000/3024 VRB03KT P6SM SCT060
     FM300500 VRB05KT P6SM BKN060
     FM301600 25012KT P6SM VCSH BKN030
      AMD NOT SKED 3001/3011=



000
FTUS41 KPBZ 292300
TAFAGC
TAF
KAGC 292320Z 3000/3024 VRB03KT P6SM SCT060
     FM300500 VRB05KT P6SM BKN060
     FM301600 25012KT P6SM VCSH BKN035=



000
FTUS41 KPBZ 292300
TAFLBE
TAF
KLBE 292320Z 3000/3024 VRB03KT P6SM BKN060
     FM301600 25012KT P6SM VCSH BKN035=



000
FTUS41 KPBZ 292000 AAA
TAFPIT
TAF AMD
KPIT 292059Z 2921/3024 30007KT P6SM BKN050
     FM301600 25007KT P6SM VCSH BKN035=



000
FTUS41 KPBZ 291700
TAFZZV
TAF
KZZV 291737Z 2918/3018 31005KT P6SM BKN050
     FM300600 21003KT 5SM BR SCT050
     FM301500 26005KT P6SM BKN035=



000
FTUS41 KPBZ 291700
TAFPIT
TAF
KPIT 291737Z 2918/3024 30007KT P6SM SCT030 OVC050
     FM300300 22003KT P6SM SCT050
     FM301600 25007KT P6SM VCSH BKN035=



000
FTUS41 KPBZ 291700
TAFHLG
TAF
KHLG 291737Z 2918/3018 28005KT P6SM OVC050
     FM300300 20005KT P6SM SCT050
     FM301600 24007KT P6SM VCSH BKN035=



000
FTUS41 KPBZ 291700
TAFBVI
TAF
KBVI 291737Z 2918/3018 28005KT P6SM SCT030 OVC050
     FM300300 22003KT P6SM SCT050
     FM301600 27007KT P6SM VCSH BKN035=



000
FTUS41 KPBZ 291700
TAFDUJ
TAF
KDUJ 291737Z 2918/3018 28007KT P6SM OVC050
     FM300300 23003KT P6SM BKN050
     FM301400 25007KT P6SM VCSH BKN035=



000
FTUS41 KPBZ 291700
TAFLBE
TAF
KLBE 291737Z 2918/3018 27007KT P6SM SCT030 OVC050
     FM300300 20004KT P6SM SCT050
     FM301600 24007KT P6SM VCSH BKN035=



000
FTUS41 KPBZ 291700
TAFAGC
TAF
KAGC 291737Z 2918/3018 30007KT P6SM SCT030 OVC050
     FM300300 20004KT P6SM SCT050
     FM301600 24007KT P6SM VCSH BKN035=



000
FTUS41 KPBZ 291700
TAFMGW
TAF
KMGW 291737Z 2918/3018 29004KT P6SM BKN050
     FM300300 00000KT P6SM SCT050=



000
FTUS41 KPBZ 291600 AAB
TAFPIT
TAF AMD
KPIT 291608Z 2916/3018 30007KT P6SM BKN050
      TEMPO 2916/2918 BKN030 BKN050
     FM300300 22005KT P6SM SCT050
     FM301500 25006KT P6SM VCSH BKN035=



000
FTUS41 KPBZ 291500 AAA
TAFPIT
TAF AMD
KPIT 291503Z 2915/3018 30007KT P6SM BKN050
     FM300300 22005KT P6SM SCT050
     FM301500 25006KT P6SM VCSH BKN035=



000
FTUS41 KPBZ 291400 AAA
TAFDUJ
TAF AMD
KDUJ 291401Z 2914/3012 25005KT P6SM OVC010
      TEMPO 2914/2915 OVC008
     FM291600 26006KT P6SM OVC020
     FM291800 27007KT P6SM BKN040
     FM300300 22005KT P6SM SCT050=



000
FTUS41 KPBZ 291100
TAFPIT
TAF
KPIT 291130Z 2912/3018 28007KT P6SM BKN050
     FM300300 22005KT P6SM SCT050
     FM301500 25006KT P6SM VCSH BKN035=



000
FTUS41 KPBZ 291100
TAFAGC
TAF
KAGC 291130Z 2912/3012 28007KT P6SM BKN050
     FM300300 22005KT P6SM SCT050=



000
FTUS41 KPBZ 291100
TAFLBE
TAF
KLBE 291130Z 2912/3012 25007KT P6SM BKN040
     FM300300 22005KT P6SM SCT050=



000
FTUS41 KPBZ 291100
TAFZZV
TAF
KZZV 291130Z 2912/3012 32005KT P6SM BKN050
     FM300300 22005KT P6SM SCT050=



000
FTUS41 KPBZ 291100
TAFMGW
TAF
KMGW 291130Z 2912/3012 30004KT P6SM BKN060
     FM300300 22005KT P6SM SCT050=



000
FTUS41 KPBZ 291100
TAFBVI
TAF
KBVI 291130Z 2912/3012 28007KT P6SM BKN050
     FM300300 22005KT P6SM SCT050=



000
FTUS41 KPBZ 291100
TAFDUJ
TAF
KDUJ 291130Z 2912/3012 25005KT P6SM BKN015
      TEMPO 2912/2914 OVC005
     FM291600 27007KT P6SM BKN040
     FM300300 22005KT P6SM SCT050=



000
FTUS41 KPBZ 291100
TAFHLG
TAF
KHLG 291130Z 2912/3012 30007KT P6SM BKN050
     FM300300 22005KT P6SM SCT050=



000
FTUS41 KPBZ 290800 AAA
TAFPIT
TAF AMD
KPIT 290848Z 2909/3012 28007KT P6SM BKN040=



000
FTUS41 KPBZ 290700 AAA
TAFDUJ
TAF AMD
KDUJ 290703Z 2907/3006 VRB05KT P6SM BKN015
      TEMPO 2907/2911 P6SM BKN005
     FM291600 29010KT P6SM OVC035=



000
FTUS41 KPBZ 290500
TAFDUJ
TAF
KDUJ 290524Z 2906/3006 VRB05KT P6SM BKN015
      TEMPO 2909/2912 P6SM SCT005
     FM291600 29010KT P6SM OVC035=



000
FTUS41 KPBZ 290500
TAFPIT
TAF
KPIT 290524Z 2906/3012 32007KT P6SM BKN040=



000
FTUS41 KPBZ 290500
TAFBVI
TAF
KBVI 290524Z 2906/3006 32007KT P6SM BKN040
      AMD NOT SKED=



000
FTUS41 KPBZ 290500
TAFLBE
TAF
KLBE 290524Z 2906/3006 00000KT P6SM SCT015
     FM291000 32007KT P6SM BKN040=



000
FTUS41 KPBZ 290500
TAFZZV
TAF
KZZV 290524Z 2906/3006 34008KT P6SM BKN050
     FM291400 31006KT P6SM SCT080=



000
FTUS41 KPBZ 290500
TAFMGW
TAF
KMGW 290524Z 2906/3006 32008KT P6SM BKN050
     FM291400 30012KT P6SM SCT050=



000
FTUS41 KPBZ 290500
TAFHLG
TAF
KHLG 290524Z 2906/3006 32007KT P6SM BKN040=



000
FTUS41 KPBZ 290500
TAFAGC
TAF
KAGC 290524Z 2906/3006 32007KT P6SM BKN040=



000
FTUS41 KPBZ 290200 AAA
TAFPIT
TAF AMD
KPIT 290256Z 2903/3006 32008KT P6SM BKN060
      TEMPO 2909/2912 BKN025
     FM300100 VRB05KT P6SM SKC=



000
FTUS41 KPBZ 290100 AAB
TAFLBE
TAF AMD
KLBE 290157Z 2902/2924 32008KT P6SM OVC050
      TEMPO 2902/2904 BKN015
     FM290500 32008KT P6SM BKN050
      TEMPO 2909/2912 5SM BR BKN025=



000
FTUS41 KPBZ 290000 AAA
TAFDUJ
TAF AMD
KDUJ 290000Z 2900/2924 32008KT P6SM OVC035
      TEMPO 2900/2903 6SM BR BKN025
     FM290500 VRB05KT P6SM BKN035
      TEMPO 2909/2912 2SM BR SCT005
     FM291600 29010KT P6SM OVC035=



000
FTUS41 KPBZ 290000 AAA
TAFLBE
TAF AMD
KLBE 290000Z 2900/2924 32008KT P6SM OVC030
      TEMPO 2900/2902 BKN015
     FM290200 32008KT P6SM OVC050
     FM290500 32008KT P6SM BKN050
      TEMPO 2909/2912 5SM BR BKN025=



000
FTUS41 KPBZ 282300
TAFDUJ
TAF
KDUJ 282321Z 2900/2924 32008KT P6SM OVC035
      TEMPO 2900/2903 BKN025
     FM290500 VRB05KT P6SM BKN035
      TEMPO 2909/2912 2SM BR SCT005
     FM291600 29010KT P6SM OVC035=



000
FTUS41 KPBZ 282300
TAFHLG
TAF
KHLG 282321Z 2900/2924 32008KT P6SM BKN060
      TEMPO 2909/2912 2SM BR SCT005=



000
FTUS41 KPBZ 282300
TAFMGW
TAF
KMGW 282321Z 2900/2924 32008KT P6SM BKN060
     FM290900 VRB03KT 3SM BR SCT060
     FM291400 30012KT P6SM SCT050=



000
FTUS41 KPBZ 282300
TAFZZV
TAF
KZZV 282321Z 2900/2924 34008KT P6SM BKN080
      TEMPO 2909/2912 3SM BR
     FM291400 31006KT P6SM SCT080=



000
FTUS41 KPBZ 282300
TAFPIT
TAF
KPIT 282321Z 2900/3006 32008KT P6SM BKN060
      TEMPO 2909/2912 BKN025
     FM300100 VRB05KT P6SM SKC=



000
FTUS41 KPBZ 282300
TAFAGC
TAF
KAGC 282321Z 2900/2924 32008KT P6SM BKN060
      TEMPO 2909/2912 BKN025=



000
FTUS41 KPBZ 282300
TAFBVI
TAF
KBVI 282321Z 2900/2924 32008KT P6SM BKN050
      TEMPO 2909/2912 BKN025
      AMD NOT SKED 2901/2911=



000
FTUS41 KPBZ 282300
TAFLBE
TAF
KLBE 282321Z 2900/2924 32008KT P6SM OVC030
     FM290200 32008KT P6SM OVC050
     FM290500 32008KT P6SM BKN050
      TEMPO 2909/2912 5SM BR BKN025=



000
FTUS41 KPBZ 282300 AAB
TAFDUJ
TAF AMD
KDUJ 282318Z 2823/2918 32010KT P6SM OVC040
      TEMPO 2823/2903 BKN015
     FM290400 32008KT P6SM BKN040=



000
FTUS41 KPBZ 282300 AAA
TAFHLG
TAF AMD
KHLG 282317Z 2823/2918 32008KT P6SM BKN060=



000
FTUS41 KPBZ 282300 AAB
TAFLBE
TAF AMD
KLBE 282317Z 2823/2918 32010KT P6SM OVC030
     FM290200 31012KT P6SM OVC060
     FM290400 32008KT P6SM BKN060=



000
FTUS41 KPBZ 282300 AAC
TAFAGC
TAF AMD
KAGC 282316Z 2823/2918 31010KT P6SM OVC050
     FM290100 32008KT P6SM BKN050=



000
FTUS41 KPBZ 282300 AAB
TAFBVI
TAF AMD
KBVI 282316Z 2823/2918 32008KT P6SM OVC050
     FM290100 30005KT P6SM BKN050=



000
FTUS41 KPBZ 282300 AAD
TAFPIT
TAF AMD
KPIT 282315Z 2823/2924 31010KT P6SM OVC060
     FM290100 32008KT P6SM BKN060=



000
FTUS41 KPBZ 282200 AAA
TAFDUJ
TAF AMD
KDUJ 282205Z 2822/2918 32010KT P6SM BKN035
      TEMPO 2822/2901 5SM -RA BKN015=



000
FTUS41 KPBZ 282200 AAA
TAFLBE
TAF AMD
KLBE 282203Z 2822/2918 27010KT P6SM OVC030
      TEMPO 2822/2824 3SM -RA BKN015
     FM290200 31012KT P6SM BKN035=



000
FTUS41 KPBZ 282200 AAB
TAFMGW
TAF AMD
KMGW 282203Z 2822/2918 31010KT P6SM OVC050
     FM290100 30005KT P6SM BKN050=



000
FTUS41 KPBZ 282200 AAC
TAFPIT
TAF AMD
KPIT 282201Z 2822/2924 31010KT P6SM BKN035
      TEMPO 2822/2824 BKN025=



000
FTUS41 KPBZ 282200 AAB
TAFAGC
TAF AMD
KAGC 282201Z 2822/2918 31010KT P6SM BKN035
      TEMPO 2822/2824 BKN025=



000
FTUS41 KPBZ 281900 AAA
TAFAGC
TAF AMD
KAGC 281956Z 2820/2918 31012G22KT P6SM -SHRA OVC015
      TEMPO 2820/2822 5SM -RA BKN008
     FM290200 30005KT P6SM BKN035=



000
FTUS41 KPBZ 281900 AAA
TAFBVI
TAF AMD
KBVI 281922Z 2819/2918 32012G22KT P6SM -SHRA OVC025
      TEMPO 2819/2821 5SM -RA BKN015
     FM290100 30005KT P6SM BKN035=



000
FTUS41 KPBZ 281900 AAB
TAFPIT
TAF AMD
KPIT 281921Z 2819/2924 32012G22KT P6SM -SHRA OVC015
      TEMPO 2819/2821 3SM -RA BKN008
     FM282200 31012KT P6SM BKN035
     FM290200 30005KT P6SM BKN035=



000
FTUS41 KPBZ 281800 AAA
TAFMGW
TAF AMD
KMGW 281827Z 2818/2918 29010G20KT P6SM VCSH SCT025 BKN035
      TEMPO 2818/2820 BKN025
     FM282200 30005KT P6SM BKN040=



000
FTUS41 KPBZ 281800 AAA
TAFPIT
TAF AMD
KPIT 281826Z 2818/2924 32012G22KT P6SM -SHRA OVC020
      TEMPO 2818/2820 2SM SHRA
     FM282200 31012KT P6SM BKN035
     FM290200 30005KT P6SM BKN035=



000
FTUS41 KPBZ 281700
TAFDUJ
TAF
KDUJ 281725Z 2818/2918 31012KT P6SM -SHRA SCT015 OVC025
      TEMPO 2818/2821 BKN015
     FM290000 30005KT P6SM BKN035=



000
FTUS41 KPBZ 281700
TAFZZV
TAF
KZZV 281725Z 2818/2918 30010G20KT P6SM VCSH SCT025 BKN035
     FM282100 31005KT P6SM BKN040=



000
FTUS41 KPBZ 281700
TAFPIT
TAF
KPIT 281725Z 2818/2924 32012G22KT P6SM -SHRA OVC020
     FM282200 31012KT P6SM BKN035
     FM290200 30005KT P6SM BKN035=



000
FTUS41 KPBZ 281700
TAFMGW
TAF
KMGW 281725Z 2818/2918 29010KT P6SM VCSH BKN035
     FM282200 30005KT P6SM BKN040=



000
FTUS41 KPBZ 281700
TAFHLG
TAF
KHLG 281725Z 2818/2918 29010G20KT P6SM -SHRA OVC020
     FM281900 32010G20KT P6SM -SHRA OVC025
     FM282200 31012KT P6SM BKN035
     FM290200 30005KT P6SM BKN035=



000
FTUS41 KPBZ 281700
TAFAGC
TAF
KAGC 281725Z 2818/2918 32012G22KT P6SM -SHRA OVC020
     FM282200 31012KT P6SM BKN035
     FM290200 30005KT P6SM BKN035=



000
FTUS41 KPBZ 281700
TAFBVI
TAF
KBVI 281725Z 2818/2918 32012G22KT P6SM -SHRA OVC015
     FM282200 31012KT P6SM BKN025
     FM290100 30005KT P6SM BKN035=



000
FTUS41 KPBZ 281700
TAFLBE
TAF
KLBE 281725Z 2818/2918 27010G20KT P6SM -SHRA OVC020
     FM281900 32012G22KT P6SM -SHRA OVC020
     FM282200 31012KT P6SM VCSH BKN035
     FM290200 30005KT P6SM BKN035=



000
FTUS41 KPBZ 281500 AAB
TAFZZV
TAF AMD
KZZV 281559Z 2816/2912 28012KT P6SM VCSH SCT025 BKN035
      TEMPO 2816/2818 BKN025
     FM282100 31008KT P6SM BKN035=



000
FTUS41 KPBZ 281500 AAB
TAFHLG
TAF AMD
KHLG 281558Z 2816/2912 27012KT P6SM -SHRA SCT015 OVC025
      TEMPO 2816/2818 BKN015
     FM281800 30012KT P6SM -SHRA OVC025
     FM282100 31010KT P6SM BKN035=



    US Dept of Commerce
    National Oceanic and Atmospheric Administration
    National Weather Service
    1325 East West Highway
    Silver Spring, MD 20910
    Page Author: NWS Internet Services Team
Disclaimer
Information Quality
Credits
Glossary
Privacy Policy
Freedom of Information Act (FOIA)
About Us
Career Opportunities